Terminal Aerodrome Forecast
Issued by NWS

Home | Current Version | Previous Version | Text Only | Print | Product List | Glossary On
Versions: 1 2 3 4 5 6 7 8 9 10 11 12 13 14 15 16 17 18 19 20 21 22 23 24 25 26 27 28 29 30
000
FTAK31 PANC 210227 AAA
TAFAVD
TAF AMD
PAVD 210227Z 2102/2124 VRB05KT P6SM SCT060 BKN120
      TEMPO 2102/2105 08008G18KT
     FM210500 07005KT 6SM -SN SCT035 BKN060
     FM211600 VRB04KT 5SM -SHSN SCT025 BKN040
      AMD LTD TO CLD VIS AND WIND=

USA.gov is the U.S. government's official web portal to all federal, state and local government web resources and services.